Time;durP1;ratioP1;P1;durP2;ratioP2;P2;SDS_P1;SDS_P2;PMS_P1;PMS_P2;Temp;Humidity;BMP_temperature;BMP_pressure;BME280_temperature;BME280_humidity;BME280_pressure;Samples;Min_cycle;Max_cycle;Signal;HPM_P1;HPM_P2
2022/09/02 00:00:52;;;;;;;0.30;0.30;;;;;;;12.14;52.04;101398.47;5128424;28;20028;-77
2022/09/02 00:03:19;;;;;;;0.40;0.40;;;;;;;12.18;52.00;101401.91;5128373;28;20027;-76
2022/09/02 00:05:45;;;;;;;0.40;0.40;;;;;;;12.11;51.99;101394.09;5128027;28;20035;-77
2022/09/02 00:08:11;;;;;;;0.35;0.35;;;;;;;12.08;51.96;101391.50;5127984;28;20023;-76
2022/09/02 00:10:41;;;;;;;0.40;0.40;;;;;;;12.07;51.95;101386.25;5128104;28;20034;-77
2022/09/02 00:13:10;;;;;;;0.30;0.30;;;;;;;12.09;51.71;101390.63;5127896;28;20043;-77
2022/09/02 00:15:36;;;;;;;0.30;0.30;;;;;;;12.10;51.69;101396.72;5128190;28;20027;-77
2022/09/02 00:18:02;;;;;;;0.30;0.30;;;;;;;12.08;51.53;101407.13;5108515;28;20038;-78
2022/09/02 00:20:29;;;;;;;0.38;0.38;;;;;;;11.98;51.40;101387.97;5128271;28;20058;-77
2022/09/02 00:22:55;;;;;;;0.30;0.30;;;;;;;12.02;51.37;101401.88;5128174;28;20360;-78
2022/09/02 00:25:20;;;;;;;0.30;0.30;;;;;;;11.94;51.37;101399.25;5128190;28;20487;-77
2022/09/02 00:27:46;;;;;;;0.30;0.30;;;;;;;11.86;51.68;101394.03;5128133;28;20023;-77
2022/09/02 00:30:13;;;;;;;0.30;0.30;;;;;;;11.83;51.44;101396.66;5127908;28;20047;-77
2022/09/02 00:32:38;;;;;;;0.30;0.30;;;;;;;11.84;51.50;101403.56;5128029;28;20028;-77
2022/09/02 00:35:04;;;;;;;0.40;0.40;;;;;;;11.81;51.46;101400.97;5126989;28;20030;-77
2022/09/02 00:37:30;;;;;;;0.30;0.30;;;;;;;11.82;51.53;101407.88;5126676;28;20019;-77
2022/09/02 00:39:56;;;;;;;0.30;0.30;;;;;;;11.82;51.56;101402.69;5126934;28;20019;-77
2022/09/02 00:42:23;;;;;;;0.40;0.40;;;;;;;11.82;51.70;101404.44;5127071;28;20034;-77
2022/09/02 00:44:48;;;;;;;0.30;0.30;;;;;;;11.74;52.13;101401.81;5127203;28;20023;-77
2022/09/02 00:47:17;;;;;;;0.40;0.40;;;;;;;11.69;52.55;101404.41;5127395;28;20049;-77
2022/09/02 00:49:52;;;;;;;0.60;0.60;;;;;;;11.59;52.77;101393.09;5127359;28;20026;-77
2022/09/02 00:52:23;;;;;;;0.52;0.52;;;;;;;11.55;52.74;101404.34;5127334;28;20024;-77
2022/09/02 00:54:52;;;;;;;0.40;0.40;;;;;;;11.50;52.84;101398.28;5127276;28;20023;-77
2022/09/02 00:57:22;;;;;;;0.30;0.30;;;;;;;11.42;53.03;101397.38;5108320;28;20023;-77
2022/09/02 00:59:56;;;;;;;0.30;0.30;;;;;;;11.43;53.24;101401.69;5127203;28;20027;-78
2022/09/02 01:02:24;;;;;;;0.30;0.30;;;;;;;11.37;53.33;101398.22;5127125;28;20437;-77
2022/09/02 01:04:50;;;;;;;0.40;0.40;;;;;;;11.36;53.30;101401.69;5126781;28;20015;-78
2022/09/02 01:07:16;;;;;;;0.30;0.30;;;;;;;11.37;53.75;101398.22;5126827;28;20040;-77
2022/09/02 01:09:42;;;;;;;0.30;0.30;;;;;;;11.40;54.38;101382.66;5126789;28;20027;-77
2022/09/02 01:12:07;;;;;;;0.30;0.30;;;;;;;11.60;54.58;101404.34;5126601;28;20122;-77
2022/09/02 01:14:34;;;;;;;0.40;0.40;;;;;;;11.68;54.61;101396.59;5108360;28;20031;-77
2022/09/02 01:17:01;;;;;;;0.30;0.30;;;;;;;11.70;54.46;101393.13;5126806;28;20043;-78
2022/09/02 01:19:37;;;;;;;0.40;0.40;;;;;;;11.78;54.41;101398.34;5108170;28;20024;-78
2022/09/02 01:22:14;;;;;;;0.40;0.40;;;;;;;11.77;54.44;101397.47;5126778;28;20028;-77
2022/09/02 01:24:39;;;;;;;0.30;0.30;;;;;;;11.73;54.00;101398.34;5126890;28;20031;-78
2022/09/02 01:27:04;;;;;;;0.40;0.40;;;;;;;11.61;53.67;101388.75;5126759;28;20024;-78
2022/09/02 01:29:30;;;;;;;0.30;0.30;;;;;;;11.55;53.55;101393.94;5126457;28;20033;-77
2022/09/02 01:31:55;;;;;;;0.40;0.40;;;;;;;11.39;53.70;101382.63;5126298;28;20038;-77
2022/09/02 01:34:22;;;;;;;0.40;0.40;;;;;;;11.37;53.66;101385.22;5126423;28;20467;-78
2022/09/02 01:36:47;;;;;;;0.40;0.40;;;;;;;11.27;54.17;101389.53;5126327;28;20061;-77
2022/09/02 01:39:13;;;;;;;0.40;0.40;;;;;;;11.12;54.67;101379.03;5107693;28;20034;-77
2022/09/02 01:41:38;;;;;;;0.35;0.35;;;;;;;10.97;55.47;101380.72;5126239;28;20495;-77
2022/09/02 01:44:05;;;;;;;0.40;0.40;;;;;;;10.90;56.20;101384.13;5126236;28;20030;-77
2022/09/02 01:46:31;;;;;;;0.30;0.30;;;;;;;10.82;56.33;101380.59;5125940;28;20035;-77
2022/09/02 01:48:56;;;;;;;0.40;0.40;;;;;;;10.74;56.66;101372.75;5126143;28;20114;-77
2022/09/02 01:51:22;;;;;;;0.40;0.40;;;;;;;10.77;57.14;101378.84;5126145;28;20467;-77
2022/09/02 01:53:47;;;;;;;0.40;0.40;;;;;;;10.79;57.60;101381.47;5107821;28;20095;-77
2022/09/02 01:56:14;;;;;;;0.40;0.40;;;;;;;10.78;57.76;101382.31;5125876;28;20020;-77
2022/09/02 01:58:40;;;;;;;0.40;0.40;;;;;;;10.78;57.67;101380.56;5125800;28;20073;-75
2022/09/02 02:01:06;;;;;;;0.40;0.40;;;;;;;10.78;57.67;101383.19;5126180;28;20458;-75
2022/09/02 02:03:38;;;;;;;0.30;0.30;;;;;;;10.72;57.30;101384.88;5125994;28;20020;-74
2022/09/02 02:06:15;;;;;;;0.40;0.40;;;;;;;10.73;57.27;101391.81;5125743;28;20077;-76
2022/09/02 02:08:41;;;;;;;0.40;0.40;;;;;;;10.66;58.01;101389.16;5125899;28;20309;-74
2022/09/02 02:11:07;;;;;;;1.05;1.05;;;;;;;10.58;58.63;101395.16;5125975;28;20041;-75
2022/09/02 02:13:34;;;;;;;0.40;0.40;;;;;;;10.49;58.91;101394.25;5107256;28;20103;-75
2022/09/02 02:16:00;;;;;;;0.40;0.40;;;;;;;10.44;59.17;101392.41;5125840;28;20041;-75
2022/09/02 02:18:25;;;;;;;0.40;0.40;;;;;;;10.39;59.16;101395.84;5125667;28;20061;-74
2022/09/02 02:20:51;;;;;;;0.40;0.40;;;;;;;10.44;59.67;101389.81;5125921;28;20095;-75
2022/09/02 02:23:16;;;;;;;0.32;0.32;;;;;;;10.54;60.49;101391.69;5125837;28;20035;-74
2022/09/02 02:25:42;;;;;;;0.40;0.40;;;;;;;10.59;60.75;101384.78;5125596;28;20027;-74
2022/09/02 02:28:08;;;;;;;0.45;0.45;;;;;;;10.59;60.72;101379.59;5125219;28;20034;-73
2022/09/02 02:30:34;;;;;;;0.40;0.40;;;;;;;10.61;60.63;101388.25;5125807;28;20027;-74
2022/09/02 02:32:59;;;;;;;0.30;0.30;;;;;;;10.62;60.45;101383.94;5125569;28;20023;-74
2022/09/02 02:35:25;;;;;;;0.40;0.40;;;;;;;10.70;60.65;101389.19;5107154;28;20019;-74
2022/09/02 02:37:51;;;;;;;0.40;0.40;;;;;;;10.73;60.79;101387.50;5125604;28;20022;-74
2022/09/02 02:40:19;;;;;;;0.40;0.40;;;;;;;10.77;60.66;101383.16;5125540;28;20083;-74
2022/09/02 02:42:46;;;;;;;0.40;0.40;;;;;;;10.80;60.71;101390.13;5129689;28;20355;-74
2022/09/02 02:45:12;;;;;;;0.40;0.40;;;;;;;10.80;60.70;101377.13;5129460;28;20179;-74
2022/09/02 02:47:41;;;;;;;0.40;0.40;;;;;;;10.86;60.75;101390.16;5129652;28;20036;-74
2022/09/02 02:50:12;;;;;;;0.40;0.40;;;;;;;10.88;60.76;101385.81;5110870;28;20031;-74
2022/09/02 02:52:39;;;;;;;0.40;0.40;;;;;;;10.86;60.64;101391.00;5129734;28;20031;-75
2022/09/02 02:55:06;;;;;;;0.40;0.40;;;;;;;10.83;60.84;101388.41;5129466;28;20019;-74
2022/09/02 02:57:33;;;;;;;0.38;0.38;;;;;;;10.86;61.03;101395.38;5129415;28;20053;-75
2022/09/02 03:00:04;;;;;;;0.30;0.30;;;;;;;10.82;61.20;101396.19;5129504;28;20023;-74
2022/09/02 03:02:33;;;;;;;0.47;0.47;;;;;;;10.75;61.32;101390.94;5129396;28;20027;-74
2022/09/02 03:04:58;;;;;;;0.50;0.50;;;;;;;10.68;61.26;101389.19;5111000;28;20064;-74
2022/09/02 03:07:24;;;;;;;0.40;0.40;;;;;;;10.69;61.61;101393.50;5129400;28;20051;-74
2022/09/02 03:09:49;;;;;;;0.40;0.40;;;;;;;10.59;61.69;101384.78;5129010;28;20016;-74
2022/09/02 03:12:15;;;;;;;0.40;0.40;;;;;;;10.61;61.77;101403.84;5128853;28;20103;-74
2022/09/02 03:14:40;;;;;;;0.40;0.40;;;;;;;10.59;61.94;101392.56;5129249;28;20020;-74
2022/09/02 03:17:06;;;;;;;0.40;0.40;;;;;;;10.61;62.05;101406.44;5129178;28;20482;-74
2022/09/02 03:19:31;;;;;;;0.40;0.40;;;;;;;10.58;62.18;101406.41;5128955;28;20020;-75
2022/09/02 03:21:57;;;;;;;0.30;0.30;;;;;;;10.51;62.25;101410.69;5129008;28;20034;-75
2022/09/02 03:24:22;;;;;;;0.30;0.30;;;;;;;10.43;62.59;101414.06;5110489;28;20148;-74
2022/09/02 03:26:47;;;;;;;0.30;0.30;;;;;;;10.33;62.83;101397.53;5128361;28;20498;-75
2022/09/02 03:29:13;;;;;;;0.40;0.40;;;;;;;10.31;62.91;101400.09;5127260;28;20391;-74
2022/09/02 03:31:38;;;;;;;0.40;0.40;;;;;;;10.34;62.80;101407.91;5128526;28;20024;-74
2022/09/02 03:34:04;;;;;;;0.40;0.40;;;;;;;10.41;62.59;101409.69;5128670;28;20031;-74
2022/09/02 03:36:32;;;;;;;0.40;0.40;;;;;;;10.42;62.72;101407.97;5128695;28;20043;-74
2022/09/02 03:38:58;;;;;;;0.40;0.40;;;;;;;10.37;62.71;101409.66;5128640;28;20023;-75
2022/09/02 03:41:24;;;;;;;0.40;0.40;;;;;;;10.35;62.78;101411.41;5128532;28;20080;-74
2022/09/02 03:43:50;;;;;;;0.30;0.30;;;;;;;10.33;62.76;101406.19;5128663;28;20077;-74
2022/09/02 03:46:16;;;;;;;0.40;0.40;;;;;;;10.36;62.55;101410.53;5110037;28;20043;-74
2022/09/02 03:48:43;;;;;;;0.40;0.40;;;;;;;10.35;62.65;101404.47;5109962;28;20387;-73
2022/09/02 03:51:09;;;;;;;0.40;0.40;;;;;;;10.34;62.75;101404.44;5128491;28;20488;-73
2022/09/02 03:53:34;;;;;;;0.30;0.30;;;;;;;10.32;62.77;101399.25;5126842;28;20038;-74
2022/09/02 03:56:10;;;;;;;0.40;0.40;;;;;;;10.29;63.07;101400.09;5128321;28;20016;-73
2022/09/02 03:58:35;;;;;;;0.30;0.30;;;;;;;10.28;62.87;101397.50;5128058;28;20028;-73
2022/09/02 04:01:01;;;;;;;1.95;1.80;;;;;;;10.26;62.78;101383.63;5109874;28;20497;-74
2022/09/02 04:03:27;;;;;;;0.40;0.40;;;;;;;10.38;62.76;101401.88;5109965;28;20034;-72
2022/09/02 04:05:52;;;;;;;0.30;0.30;;;;;;;10.44;62.41;101395.03;5128294;28;20032;-73
2022/09/02 04:08:21;;;;;;;0.40;0.40;;;;;;;10.45;62.42;101397.63;5127974;28;20026;-77
2022/09/02 04:10:46;;;;;;;0.30;0.30;;;;;;;10.52;62.55;101393.38;5128612;28;20024;-78
2022/09/02 04:13:11;;;;;;;0.30;0.30;;;;;;;10.58;62.02;101402.94;5128312;28;20114;-76
2022/09/02 04:15:43;;;;;;;0.40;0.40;;;;;;;10.52;62.13;101393.38;5128171;28;20020;-77
2022/09/02 04:18:10;;;;;;;0.40;0.40;;;;;;;10.55;62.07;101409.00;5128702;28;20024;-77
2022/09/02 04:20:38;;;;;;;0.32;0.32;;;;;;;10.49;62.29;101411.53;5128038;28;20052;-77
2022/09/02 04:23:04;;;;;;;0.40;0.40;;;;;;;10.48;62.43;101415.00;5128364;28;20027;-78
2022/09/02 04:25:30;;;;;;;0.30;0.30;;;;;;;10.51;62.55;101415.03;5133809;28;20058;-73
2022/09/02 04:27:56;;;;;;;0.40;0.40;;;;;;;10.58;62.60;101415.94;5127776;28;20108;-73
2022/09/02 04:30:23;;;;;;;0.40;0.40;;;;;;;10.68;62.47;101415.16;5127830;28;20159;-76
2022/09/02 04:32:48;;;;;;;0.40;0.40;;;;;;;10.71;62.31;101409.97;5110668;28;20114;-75
2022/09/02 04:35:13;;;;;;;0.40;0.40;;;;;;;10.81;62.31;101403.13;5127626;28;20023;-75
2022/09/02 04:37:39;;;;;;;0.30;0.30;;;;;;;11.00;62.03;101405.84;5110166;28;20106;-75
2022/09/02 04:40:05;;;;;;;0.40;0.40;;;;;;;11.18;61.92;101388.59;5128059;28;20031;-75
2022/09/02 04:42:30;;;;;;;0.30;0.30;;;;;;;11.50;61.77;101401.72;5127972;28;20360;-74
2022/09/02 04:44:56;;;;;;;0.30;0.30;;;;;;;11.88;61.09;101397.53;5109473;28;20028;-77
2022/09/02 04:47:22;;;;;;;0.30;0.30;;;;;;;12.25;61.30;101396.72;5127475;28;20073;-76
2022/09/02 04:49:49;;;;;;;0.30;0.30;;;;;;;12.70;60.84;101397.59;5109417;28;20376;-76
2022/09/02 04:52:15;;;;;;;0.30;0.30;;;;;;;13.06;59.52;101398.38;5127557;28;20027;-75
2022/09/02 04:54:40;;;;;;;0.30;0.30;;;;;;;13.41;58.73;101406.06;5127331;28;20062;-74
2022/09/02 04:57:06;;;;;;;0.30;0.30;;;;;;;13.63;56.87;101407.75;5108656;28;20020;-74
2022/09/02 04:59:31;;;;;;;0.30;0.30;;;;;;;13.85;57.18;101402.38;5109362;28;20027;-74
2022/09/02 05:01:56;;;;;;;0.30;0.30;;;;;;;14.08;56.11;101403.13;5127506;28;20022;-75
2022/09/02 05:04:22;;;;;;;0.30;0.30;;;;;;;14.30;55.46;101409.03;5126488;28;20054;-75
2022/09/02 05:06:49;;;;;;;0.30;0.30;;;;;;;14.52;54.09;101408.84;5127612;28;20021;-75
2022/09/02 05:09:15;;;;;;;0.30;0.30;;;;;;;14.79;54.17;101406.00;5127154;28;20039;-75
2022/09/02 05:11:41;;;;;;;0.40;0.40;;;;;;;15.04;54.69;101401.44;5127155;28;20034;-75
2022/09/02 05:14:07;;;;;;;0.30;0.30;;;;;;;15.32;52.76;101401.09;5108693;28;20046;-74
2022/09/02 05:16:38;;;;;;;0.30;0.30;;;;;;;15.49;52.11;101411.34;5108452;28;20030;-75
2022/09/02 05:19:05;;;;;;;0.40;0.40;;;;;;;15.68;52.54;101405.00;5108638;28;20049;-75
2022/09/02 05:21:31;;;;;;;0.30;0.30;;;;;;;15.99;51.74;101401.97;5126942;28;20388;-71
2022/09/02 05:23:57;;;;;;;0.30;0.30;;;;;;;16.13;50.36;101399.16;5126885;28;20090;-69
2022/09/02 05:26:23;;;;;;;0.30;0.30;;;;;;;16.12;49.50;101401.78;5126605;28;20019;-68
2022/09/02 05:28:49;;;;;;;0.30;0.30;;;;;;;16.11;49.25;101398.28;5126302;28;20054;-68
2022/09/02 05:31:17;;;;;;;0.30;0.30;;;;;;;16.12;49.60;101402.63;5126415;28;20023;-67
2022/09/02 05:33:44;;;;;;;0.30;0.30;;;;;;;16.17;48.68;101398.19;5126901;28;20034;-68
2022/09/02 05:36:12;;;;;;;0.30;0.30;;;;;;;16.27;48.29;101400.66;5126588;28;20035;-68
2022/09/02 05:38:42;;;;;;;0.20;0.20;;;;;;;16.31;49.00;101402.38;5126467;28;20379;-68
2022/09/02 05:41:09;;;;;;;0.20;0.20;;;;;;;16.51;47.90;101401.13;5126379;28;20015;-70
2022/09/02 05:43:36;;;;;;;0.30;0.30;;;;;;;16.64;48.90;101396.56;5126017;28;20019;-70
2022/09/02 05:46:07;;;;;;;0.30;0.30;;;;;;;17.08;48.78;101394.88;5125905;28;20039;-69
2022/09/02 05:51:23;;;;;;;0.30;0.30;;;;;;;18.06;48.36;101384.00;5126799;28;20030;-69
2022/09/02 05:53:52;;;;;;;0.40;0.40;;;;;;;18.69;48.90;101392.97;5126138;28;20047;-69
2022/09/02 05:56:18;;;;;;;0.20;0.20;;;;;;;19.29;48.34;101390.47;5126323;28;20024;-69
2022/09/02 05:58:43;;;;;;;0.30;0.30;;;;;;;19.81;47.82;101396.78;5107790;28;20027;-69
2022/09/02 06:01:11;;;;;;;0.40;0.40;;;;;;;20.23;47.28;101394.63;5126374;28;20045;-69
2022/09/02 06:03:37;;;;;;;0.20;0.20;;;;;;;20.66;45.26;101392.28;5126344;28;20030;-69
2022/09/02 06:06:02;;;;;;;0.20;0.20;;;;;;;20.80;45.85;101400.56;5126188;28;20073;-69
2022/09/02 06:08:28;;;;;;;0.20;0.20;;;;;;;21.24;45.78;101393.75;5107740;28;20028;-69
2022/09/02 06:10:53;;;;;;;0.20;0.20;;;;;;;21.96;45.42;101396.28;5126139;28;20042;-70
2022/09/02 06:13:21;;;;;;;0.20;0.20;;;;;;;22.36;45.46;101399.06;5125839;28;20030;-70
2022/09/02 06:15:48;;;;;;;0.20;0.20;;;;;;;22.73;44.24;101407.19;5125254;28;20098;-70
2022/09/02 06:18:14;;;;;;;0.10;0.10;;;;;;;22.91;44.81;101407.31;5126065;28;20051;-70
2022/09/02 06:20:42;;;;;;;0.20;0.20;;;;;;;23.24;43.29;101406.69;5107585;28;20020;-70
2022/09/02 06:23:07;;;;;;;0.20;0.20;;;;;;;23.42;42.90;101401.50;5107901;28;20034;-70
2022/09/02 06:25:37;;;;;;;0.20;0.20;;;;;;;23.47;41.85;101411.88;5126247;28;20023;-70
2022/09/02 06:28:03;;;;;;;0.20;0.20;;;;;;;23.40;42.43;101421.94;5125832;28;20045;-69
2022/09/02 06:30:31;;;;;;;0.20;0.20;;;;;;;23.41;41.98;101418.34;5125881;28;20020;-70
2022/09/02 06:32:56;;;;;;;0.20;0.20;;;;;;;23.35;39.68;101415.94;5126012;28;20054;-69
2022/09/02 06:35:22;;;;;;;0.20;0.20;;;;;;;23.02;36.60;101423.56;5126097;28;20027;-68
2022/09/02 06:37:47;;;;;;;0.20;0.20;;;;;;;22.32;38.71;101415.13;5107806;28;20030;-69
2022/09/02 06:40:13;;;;;;;0.20;0.20;;;;;;;22.39;39.31;101425.38;5125691;28;20052;-69
2022/09/02 06:42:39;;;;;;;0.20;0.20;;;;;;;22.47;38.22;101432.13;5125701;28;20026;-69
2022/09/02 06:45:05;;;;;;;0.20;0.20;;;;;;;22.35;38.98;101429.06;5125772;28;20020;-70
2022/09/02 06:47:31;;;;;;;0.20;0.20;;;;;;;22.27;39.22;101424.09;5125880;28;20459;-70
2022/09/02 06:49:57;;;;;;;0.20;0.20;;;;;;;22.27;40.11;101426.75;5125806;28;20035;-69
2022/09/02 06:52:22;;;;;;;0.20;0.20;;;;;;;22.83;40.11;101442.06;5125844;28;20034;-69
2022/09/02 06:54:49;;;;;;;0.28;0.28;;;;;;;23.36;40.29;101425.59;5125771;28;20024;-70
2022/09/02 06:57:16;;;;;;;0.20;0.20;;;;;;;23.77;39.98;101430.78;5125398;28;20479;-69
2022/09/02 06:59:41;;;;;;;0.20;0.20;;;;;;;24.25;38.71;101435.56;5125855;28;20030;-69
2022/09/02 07:02:07;;;;;;;0.10;0.10;;;;;;;24.40;38.09;101433.06;5125903;28;20024;-70
2022/09/02 07:07:17;;;;;;;0.20;0.20;;;;;;;24.69;38.18;101435.16;5125733;28;20042;-69
2022/09/02 07:09:43;;;;;;;0.10;0.10;;;;;;;24.62;36.30;101429.31;5125583;28;20020;-69
2022/09/02 07:12:08;;;;;;;0.20;0.20;;;;;;;24.11;35.06;101425.63;5125419;28;20019;-70
2022/09/02 07:14:38;;;;;;;0.20;0.20;;;;;;;23.61;34.67;101424.50;5125595;28;20027;-70
2022/09/02 07:17:04;;;;;;;0.20;0.20;;;;;;;23.24;35.58;101427.06;5125656;28;20043;-69
2022/09/02 07:19:30;;;;;;;0.25;0.25;;;;;;;23.17;35.57;101418.53;5125496;28;20026;-69
2022/09/02 07:21:55;;;;;;;0.20;0.20;;;;;;;23.22;36.38;101424.47;5125383;28;20028;-70
2022/09/02 07:24:21;;;;;;;0.20;0.20;;;;;;;22.99;34.83;101423.72;5125526;28;20019;-70
2022/09/02 07:26:47;;;;;;;0.20;0.20;;;;;;;22.64;34.10;101424.34;5125639;28;20020;-70
2022/09/02 07:29:13;;;;;;;0.20;0.20;;;;;;;22.43;35.74;101426.09;5127696;28;20019;-70
2022/09/02 07:31:42;;;;;;;0.20;0.20;;;;;;;22.70;34.75;101427.66;5109953;28;20023;-69
2022/09/02 07:34:08;;;;;;;0.20;0.20;;;;;;;22.76;33.84;101428.25;5128881;28;20498;-69
2022/09/02 07:36:35;;;;;;;0.20;0.20;;;;;;;22.33;33.92;101425.66;5128898;28;20019;-70
2022/09/02 07:39:02;;;;;;;0.20;0.20;;;;;;;22.07;35.22;101432.88;5110540;28;20027;-71
2022/09/02 07:41:28;;;;;;;0.63;0.63;;;;;;;22.44;35.60;101427.84;5128701;28;20510;-71
2022/09/02 07:43:54;;;;;;;0.20;0.20;;;;;;;22.52;34.24;101443.38;5128779;28;20028;-72
2022/09/02 07:46:20;;;;;;;0.10;0.10;;;;;;;22.11;34.94;101428.31;5128559;28;20043;-71
2022/09/02 07:48:48;;;;;;;0.20;0.20;;;;;;;22.17;34.10;101420.13;5128810;28;20042;-70
2022/09/02 07:51:15;;;;;;;0.20;0.20;;;;;;;21.95;34.19;101431.56;5128624;28;20128;-70
2022/09/02 07:53:42;;;;;;;0.20;0.20;;;;;;;21.56;34.22;101438.34;5128935;28;20023;-71
2022/09/02 07:56:08;;;;;;;0.25;0.25;;;;;;;21.33;34.39;101441.84;5128664;28;20178;-70
2022/09/02 07:58:33;;;;;;;0.20;0.20;;;;;;;21.08;34.34;101450.69;5128346;28;20055;-72
2022/09/02 08:00:59;;;;;;;0.20;0.20;;;;;;;20.73;35.06;101438.66;5128461;28;20043;-71
2022/09/02 08:03:25;;;;;;;0.20;0.20;;;;;;;20.80;34.67;101440.16;5128799;28;20482;-70
2022/09/02 08:05:51;;;;;;;0.30;0.30;;;;;;;20.76;35.10;101445.59;5110086;28;20020;-69
2022/09/02 08:08:21;;;;;;;0.20;0.20;;;;;;;20.67;34.31;101441.50;5128385;28;20062;-69
2022/09/02 08:10:49;;;;;;;0.20;0.20;;;;;;;20.48;35.87;101441.28;5128200;28;20062;-70
2022/09/02 08:13:16;;;;;;;0.20;0.20;;;;;;;20.63;35.54;101447.78;5128235;28;20023;-70
2022/09/02 08:15:42;;;;;;;0.20;0.20;;;;;;;20.78;35.87;101449.91;5128626;28;20020;-71
2022/09/02 08:18:07;;;;;;;0.20;0.20;;;;;;;20.90;35.56;101439.81;5128526;28;20030;-70
2022/09/02 08:20:33;;;;;;;0.20;0.20;;;;;;;20.97;35.56;101438.75;5128008;28;20023;-69
2022/09/02 08:22:59;;;;;;;0.20;0.20;;;;;;;20.99;35.40;101431.59;5128375;28;20032;-69
2022/09/02 08:25:24;;;;;;;0.20;0.20;;;;;;;21.08;35.75;101443.63;5128003;28;20024;-69
2022/09/02 08:27:52;;;;;;;0.20;0.20;;;;;;;21.44;35.15;101442.31;5127942;28;20034;-69
2022/09/02 08:30:18;;;;;;;0.20;0.20;;;;;;;21.27;35.36;101435.91;5127963;28;20440;-69
2022/09/02 08:32:43;;;;;;;0.20;0.20;;;;;;;21.03;35.83;101437.66;5127800;28;20049;-68
2022/09/02 08:35:09;;;;;;;0.20;0.20;;;;;;;20.92;35.86;101438.91;5127598;28;20035;-69
2022/09/02 08:37:36;;;;;;;0.20;0.20;;;;;;;20.83;36.23;101443.63;5127791;28;20091;-69
2022/09/02 08:40:05;;;;;;;0.20;0.20;;;;;;;20.73;36.30;101438.66;5127152;28;20035;-69
2022/09/02 08:42:45;;;;;;;0.20;0.20;;;;;;;20.86;36.56;101439.09;5127460;28;20035;-70
2022/09/02 08:45:11;;;;;;;0.20;0.20;;;;;;;21.10;35.55;101436.53;5109199;28;20049;-70
2022/09/02 08:47:38;;;;;;;0.20;0.20;;;;;;;21.13;35.81;101446.09;5127825;28;20024;-69
2022/09/02 08:50:14;;;;;;;0.20;0.20;;;;;;;20.75;36.36;101438.59;5127505;28;20054;-69
2022/09/02 08:52:49;;;;;;;0.20;0.20;;;;;;;20.71;36.79;101443.13;5127681;28;20024;-69
2022/09/02 08:55:24;;;;;;;0.20;0.20;;;;;;;21.12;36.41;101431.19;5127526;28;20383;-68
2022/09/02 08:57:50;;;;;;;0.20;0.20;;;;;;;21.59;35.87;101429.44;5127409;28;20476;-68
2022/09/02 09:00:16;;;;;;;0.20;0.20;;;;;;;21.83;35.17;101448.78;5127213;28;20019;-67
2022/09/02 09:03:01;;;;;;;0.20;0.20;;;;;;;21.52;35.49;101455.22;5127376;28;20015;-69
2022/09/02 09:05:42;;;;;;;0.30;0.30;;;;;;;21.55;35.49;101447.16;5127270;28;20043;-69
2022/09/02 09:08:25;;;;;;;0.30;0.30;;;;;;;21.81;35.36;101439.19;5127285;28;20030;-69
2022/09/02 09:11:00;;;;;;;0.20;0.20;;;;;;;22.28;34.41;101454.91;5127216;28;20433;-69
2022/09/02 09:13:50;;;;;;;0.20;0.20;;;;;;;22.48;34.23;101447.06;5126843;28;20054;-69
2022/09/02 09:16:27;;;;;;;0.20;0.20;;;;;;;22.56;32.69;101444.13;5127272;28;20039;-69
2022/09/02 09:19:01;;;;;;;0.47;0.47;;;;;;;22.25;33.13;101439.16;5127197;28;20020;-69
2022/09/02 09:21:30;;;;;;;0.20;0.20;;;;;;;22.21;33.80;101442.00;5126936;28;20480;-70
2022/09/02 09:23:59;;;;;;;0.20;0.20;;;;;;;22.08;34.23;101449.59;5126952;28;20026;-70
2022/09/02 09:26:31;;;;;;;0.20;0.20;;;;;;;21.99;34.34;101433.19;5126809;28;20023;-70
2022/09/02 09:28:58;;;;;;;0.20;0.20;;;;;;;22.06;34.72;101444.34;5126682;28;20076;-69
2022/09/02 09:31:29;;;;;;;0.20;0.20;;;;;;;22.23;34.63;101441.03;5126977;28;20483;-70
2022/09/02 09:34:11;;;;;;;0.20;0.20;;;;;;;22.94;32.94;101441.59;5108504;28;20096;-68
2022/09/02 09:36:39;;;;;;;;;;;;;;;22.74;32.22;101434.53;5127287;28;20030;-68
2022/09/02 09:39:18;;;;;;;0.20;0.20;;;;;;;22.19;32.61;101438.59;5126672;28;19954;-69
2022/09/02 09:41:45;;;;;;;0.20;0.20;;;;;;;21.92;33.32;101434.34;5108168;28;20442;-68
2022/09/02 09:44:37;;;;;;;0.20;0.20;;;;;;;21.73;34.27;101429.75;5126439;28;20036;-69
2022/09/02 09:47:08;;;;;;;0.20;0.20;;;;;;;22.18;33.54;101437.72;5126333;28;20475;-68
2022/09/02 09:49:35;;;;;;;0.20;0.20;;;;;;;22.33;33.44;101430.06;5126484;28;20043;-70
2022/09/02 09:52:00;;;;;;;0.20;0.20;;;;;;;23.10;31.54;101422.38;5126564;28;20024;-69
2022/09/02 09:54:26;;;;;;;0.20;0.20;;;;;;;22.75;32.15;101434.47;5126547;28;20047;-70
2022/09/02 09:56:53;;;;;;;0.30;0.30;;;;;;;22.52;33.21;101420.41;5108190;28;20383;-69
2022/09/02 09:59:46;;;;;;;0.25;0.25;;;;;;;23.18;33.04;101432.63;5126004;28;20102;-70
2022/09/02 10:02:23;;;;;;;0.20;0.20;;;;;;;23.67;32.37;101426.00;5126652;28;20025;-69
2022/09/02 10:04:49;;;;;;;0.20;0.20;;;;;;;23.86;29.60;101421.53;5126500;28;20027;-68
2022/09/02 10:07:34;;;;;;;0.20;0.20;;;;;;;23.37;31.24;101428.19;5126165;28;20095;-69
2022/09/02 10:10:16;;;;;;;0.20;0.20;;;;;;;23.48;31.59;101433.00;5126335;28;20022;-70
2022/09/02 10:12:41;;;;;;;;;;;;;;;23.70;31.43;101425.84;5108296;28;20033;-70
2022/09/02 10:15:08;;;;;;;0.15;0.15;;;;;;;24.37;31.62;101419.97;5126346;28;19957;-69
2022/09/02 10:17:46;;;;;;;0.20;0.20;;;;;;;24.57;30.42;101429.53;5126192;28;20016;-70
2022/09/02 10:20:21;;;;;;;0.20;0.20;;;;;;;24.57;30.14;101418.94;5126056;28;20019;-70
2022/09/02 10:23:14;;;;;;;0.20;0.20;;;;;;;24.44;30.32;101423.16;5126374;28;20418;-71
2022/09/02 10:25:55;;;;;;;0.10;0.10;;;;;;;24.37;30.16;101422.63;5126281;28;20075;-70
2022/09/02 10:28:52;;;;;;;0.20;0.20;;;;;;;24.31;30.02;101418.50;5125925;28;20032;-69
2022/09/02 10:31:22;;;;;;;0.13;0.13;;;;;;;24.47;29.63;101418.53;5125955;28;20016;-70
2022/09/02 10:34:02;;;;;;;0.20;0.20;;;;;;;24.21;29.35;101422.53;5107834;28;20019;-70
2022/09/02 10:36:57;;;;;;;0.20;0.20;;;;;;;24.20;29.69;101420.81;5125986;28;20020;-70
2022/09/02 10:39:22;;;;;;;0.20;0.20;;;;;;;24.48;29.96;101414.97;5125929;28;20027;-70
2022/09/02 10:41:48;;;;;;;0.10;0.10;;;;;;;24.94;29.07;101412.63;5125869;28;20024;-70
2022/09/02 10:44:29;;;;;;;0.20;0.20;;;;;;;24.98;27.49;101403.59;5125722;28;20039;-69
2022/09/02 10:47:06;;;;;;;0.20;0.20;;;;;;;24.57;27.54;101413.63;5125763;28;20503;-69
2022/09/02 10:49:48;;;;;;;0.20;0.20;;;;;;;23.88;28.67;101416.16;5125790;28;20034;-70
2022/09/02 10:52:31;;;;;;;0.20;0.20;;;;;;;23.81;28.93;101409.41;5125994;28;20019;-70
2022/09/02 10:55:26;;;;;;;0.20;0.20;;;;;;;23.83;29.32;101413.72;5125754;28;20401;-71
2022/09/02 10:58:02;;;;;;;0.20;0.20;;;;;;;23.82;28.52;101406.69;5125673;28;20102;-69
2022/09/02 11:00:30;;;;;;;0.32;0.32;;;;;;;23.35;29.33;101392.09;5125586;28;20024;-70
2022/09/02 11:03:11;;;;;;;0.20;0.20;;;;;;;23.36;29.91;101415.00;5128866;28;20058;-70
2022/09/02 11:05:47;;;;;;;0.20;0.20;;;;;;;23.21;29.35;101403.34;5111343;28;20417;-70
2022/09/02 11:08:31;;;;;;;0.20;0.20;;;;;;;23.57;29.79;101404.38;5129608;28;20375;-71
2022/09/02 11:11:20;;;;;;;0.20;0.20;;;;;;;24.12;28.45;101406.09;5111051;28;20126;-71
2022/09/02 11:13:45;;;;;;;0.20;0.20;;;;;;;24.23;28.39;101400.28;5129295;28;20072;-71
2022/09/02 11:16:17;;;;;;;0.20;0.20;;;;;;;24.47;28.31;101396.47;5129411;28;20110;-71
2022/09/02 11:18:56;;;;;;;0.17;0.17;;;;;;;24.68;28.45;101389.16;5129441;28;20028;-71
2022/09/02 11:21:49;;;;;;;0.10;0.10;;;;;;;24.96;27.95;101392.19;5129205;28;20027;-71
2022/09/02 11:24:20;;;;;;;0.20;0.20;;;;;;;24.99;27.36;101386.69;5129505;28;20023;-70
2022/09/02 11:27:14;;;;;;;0.15;0.15;;;;;;;23.72;28.48;101385.06;5128491;28;20084;-70
2022/09/02 11:29:57;;;;;;;0.10;0.10;;;;;;;22.15;30.21;101406.97;5127743;28;20019;-72
2022/09/02 11:32:36;;;;;;;0.20;0.20;;;;;;;21.15;31.66;101394.09;5128892;28;20016;-70
2022/09/02 11:35:06;;;;;;;0.20;0.20;;;;;;;20.35;32.90;101372.28;5129163;28;20050;-70
2022/09/02 11:37:37;;;;;;;0.40;0.40;;;;;;;20.01;33.95;101406.72;5129138;28;20065;-69
2022/09/02 11:40:11;;;;;;;0.20;0.20;;;;;;;19.67;34.59;101395.47;5128813;28;20024;-70